Latest Weather Observations for Cape Moreton

IDQ60901

Issued at 3:01 pm EST Monday 23 September 2019 (issued every 10 minutes, with the page automatically refreshed every 10 minutes)

About weather observations | Map of Brisbane area stations | Latest observations for Brisbane area | Other Formats
Station Details ID: 040043 Name: CAPE MORETON LIGHTHOUSE Lat: -27.03 Lon: 153.47 Height: 99.9 m
Data from the previous 72 hours. | See also: Recent months at Cape Moreton
Date/Time
EST
Temp
°C
App
Temp
°C
Dew
Point
°C
Rel
Hum
%
Delta-T
°C
Wind Press
QNH
hPa
Press
MSL
hPa
Rain since
9am
mm
Dir  Spd
km/h
Gust
km/h
Spd
kts
Gust
kts
23/02:30pm 22.9 22.2 18.7 77 2.7 NNE 20 32 11 17 1019.6 1019.4 0.0
23/02:00pm 23.2 22.4 18.5 75 3.0 NNE 20 30 11 16 1019.8 1019.6 0.0
23/01:30pm 23.9 23.5 19.0 74 3.1 N 19 28 10 15 1020.3 1020.1 0.0
23/01:00pm 23.9 23.4 19.0 74 3.1 N 20 30 11 16 1020.9 1020.7 0.0
23/12:30pm 23.1 21.7 18.0 73 3.2 N 22 30 12 16 1021.5 1021.3 0.0
23/12:00pm 22.6 20.6 18.2 76 2.8 N 26 32 14 17 1022.0 1021.8 0.0
23/11:30am 22.3 20.5 17.9 76 2.7 N 24 30 13 16 1022.6 1022.4 0.0
23/11:00am 23.5 23.3 18.6 74 3.1 NNW 17 26 9 14 1023.1 1022.8 0.0
23/10:30am 22.1 20.5 17.5 75 2.9 NNW 22 30 12 16 1023.7 1023.4 0.0
23/10:00am 21.6 20.0 17.4 77 2.6 NW 22 30 12 16 1024.2 1023.9 0.0
23/09:30am 21.2 19.5 17.2 78 2.5 NW 22 28 12 15 1024.5 1024.2 0.0
23/09:00am 21.8 20.6 17.4 76 2.7 NW 20 30 11 16 1024.9 1024.6 0.0
23/08:30am 21.3 19.9 17.1 77 2.6 NW 20 28 11 15 1025.0 1024.7 0.0
23/08:00am 20.9 18.8 17.1 79 2.3 NW 24 32 13 17 1024.9 1024.6 0.0
23/07:30am 20.4 17.5 17.0 81 2.1 NW 28 39 15 21 1024.6 1024.3 0.0
23/07:00am 20.0 16.3 17.0 83 1.8 NW 32 39 17 21 1024.4 1024.1 0.0
23/06:30am 19.6 15.8 16.8 84 1.7 NW 32 44 17 24 1024.3 1024.0 0.0
23/06:00am 19.0 16.0 16.8 87 1.3 NW 28 39 15 21 1024.2 1023.9 0.0
23/05:30am 19.1 16.3 17.4 90 1.0 NW 28 41 15 22 1023.8 1023.5 0.0
23/05:00am 19.2 16.5 17.5 90 1.0 NW 28 35 15 19 1023.6 1023.3 0.0
23/04:30am 19.2 16.9 17.7 91 0.9 NNW 26 33 14 18 1023.4 1023.1 0.0
23/04:00am 19.2 17.4 17.9 92 0.8 NNW 24 32 13 17 1023.3 1023.0 0.0
23/03:30am 19.2 17.8 17.9 92 0.8 NW 22 32 12 17 1023.4 1023.1 0.0
23/03:00am 19.3 17.1 17.8 91 0.9 NW 26 32 14 17 1023.4 1023.1 0.0
23/02:30am 19.5 18.1 18.0 91 0.9 NW 22 30 12 16 1023.6 1023.3 0.0
23/02:00am 20.0 17.5 18.1 89 1.2 NNW 28 41 15 22 1023.7 1023.4 0.0
23/01:30am 20.0 15.7 17.8 87 1.4 N 37 44 20 24 1023.8 1023.5 0.0
23/01:00am 20.1 16.3 18.1 88 1.2 N 35 43 19 23 1024.1 1023.8 0.0
23/12:30am 20.2 17.1 18.3 89 1.2 N 32 39 17 21 1024.3 1024.0 0.0
23/12:00am 20.0 16.6 17.8 87 1.4 N 32 39 17 21 1024.4 1024.1 0.0
 
Date/Time
EST
Temp
°C
App
Temp
°C
Dew
Point
°C
Rel
Hum
%
Delta-T
°C
Wind Press
QNH
hPa
Press
MSL
hPa
Rain since
9am
mm
Dir  Spd
km/h
Gust
km/h
Spd
kts
Gust
kts
22/11:30pm 20.0 16.6 17.8 87 1.4 N 32 39 17 21 1024.5 1024.2 0.0
22/11:00pm 19.9 15.9 17.5 86 1.5 N 35 39 19 21 1024.5 1024.2 0.0
22/10:30pm 20.0 17.4 17.8 87 1.4 N 28 37 15 20 1024.6 1024.3 0.0
22/10:00pm 19.9 16.7 17.3 85 1.6 N 30 37 16 20 1024.4 1024.1 0.0
22/09:30pm 19.9 17.1 17.3 85 1.6 N 28 35 15 19 1024.4 1024.1 0.0
22/09:00pm 19.9 17.7 16.9 83 1.8 N 24 33 13 18 1024.5 1024.2 0.0
22/08:30pm 19.9 18.1 16.9 83 1.8 N 22 32 12 17 1024.6 1024.3 0.0
22/08:00pm 19.9 17.6 16.7 82 1.9 N 24 33 13 18 1024.6 1024.3 0.0
22/07:30pm 19.9 17.6 16.7 82 1.9 NNE 24 32 13 17 1024.6 1024.3 0.0
22/07:00pm 19.9 17.5 16.5 81 2.0 NNE 24 33 13 18 1024.2 1023.9 0.0
22/06:30pm 20.0 16.4 16.2 79 2.3 NNE 30 35 16 19 1023.9 1023.6 0.0
22/06:00pm 20.0 16.3 16.0 78 2.4 NE 30 39 16 21 1023.8 1023.5 0.0
22/05:30pm 20.1 16.4 16.1 78 2.4 NE 30 35 16 19 1023.6 1023.3 0.0
22/05:00pm 20.2 16.7 15.6 75 2.7 NE 28 35 15 19 1023.5 1023.2 0.0
22/04:30pm 20.4 17.3 15.6 74 2.9 NE 26 32 14 17 1023.5 1023.2 0.0
22/04:00pm 20.6 17.7 16.0 75 2.8 NE 26 32 14 17 1023.4 1023.1 0.0
22/03:30pm 20.8 17.9 16.2 75 2.8 NE 26 35 14 19 1023.4 1023.1 0.0
22/03:00pm 21.6 20.0 16.6 73 3.0 NE 20 28 11 15 1023.6 1023.3 0.0
22/02:30pm 22.5 21.0 16.3 68 3.8 NE 19 24 10 13 1023.7 1023.4 0.0
22/02:00pm 23.1 21.6 16.2 65 4.2 NNE 19 24 10 13 1024.0 1023.7 0.0
22/01:30pm 24.5 24.4 17.0 63 4.7 NNE 13 20 7 11 1024.3 1024.0 0.0
22/01:00pm 23.0 22.1 15.8 64 4.3 N 15 20 8 11 1024.7 1024.4 0.0
22/12:30pm 23.3 22.2 16.4 65 4.2 N 17 20 9 11 1024.9 1024.6 0.0
22/12:00pm 23.8 23.2 17.5 68 3.9 N 17 24 9 13 1025.3 1025.0 0.0
22/11:30am 22.8 21.3 16.4 67 3.9 N 19 24 10 13 1025.6 1025.3 0.0
22/11:00am 23.6 22.8 17.1 67 4.0 NNW 17 24 9 13 1025.8 1025.5 0.0
22/10:30am 23.4 22.1 16.9 67 4.0 NNW 19 26 10 14 1026.0 1025.7 0.0
22/10:00am 22.7 21.1 16.5 68 3.8 N 20 26 11 14 1026.4 1026.1 0.0
22/09:30am 21.8 20.2 15.9 69 3.6 N 19 26 10 14 1026.5 1026.2 0.0
22/09:00am 22.7 21.5 16.0 66 4.0 N 17 24 9 13 1026.4 1026.1 0.0
22/08:30am 22.1 20.3 15.5 66 4.0 N 19 26 10 14 1026.3 1026.0 0.0
22/08:00am 22.1 20.5 16.1 69 3.6 NNE 19 26 10 14 1026.4 1026.1 0.0
22/07:30am 21.6 19.5 16.1 71 3.3 NNE 22 30 12 16 1026.1 1025.8 0.0
22/07:00am 21.3 18.9 16.3 73 3.0 NNE 24 33 13 18 1025.9 1025.6 0.0
22/06:30am 20.4 18.0 16.4 78 2.4 NNE 24 33 13 18 1025.6 1025.3 0.0
22/06:00am 19.8 17.4 16.3 80 2.1 NNE 24 32 13 17 1025.3 1025.0 0.0
22/05:30am 19.6 17.2 16.4 82 1.9 NNE 24 32 13 17 1025.1 1024.8 0.0
22/05:00am 19.7 16.9 16.3 81 2.0 NNE 26 33 14 18 1024.8 1024.5 0.0
22/04:30am 19.6 16.8 16.3 81 2.0 NNE 26 33 14 18 1024.5 1024.2 0.0
22/04:00am 19.7 15.8 16.5 82 1.9 NNE 32 37 17 20 1024.3 1024.0 0.0
22/03:30am 19.6 16.0 16.3 81 2.0 NNE 30 39 16 21 1024.0 1023.7 0.0
22/03:00am 19.6 15.6 16.3 81 2.0 NNE 32 39 17 21 1024.0 1023.7 0.0
22/02:30am 19.7 16.2 16.5 82 1.9 NNE 30 39 16 21 1024.1 1023.8 0.0
22/02:00am 19.6 16.6 16.8 84 1.7 NNE 28 37 15 20 1024.2 1023.9 0.0
22/01:30am 19.7 15.9 16.7 83 1.8 NNE 32 43 17 23 1024.4 1024.1 0.0
22/01:00am 19.7 16.4 16.9 84 1.7 NNE 30 37 16 20 1024.6 1024.3 0.0
22/12:30am 19.6 17.1 17.0 85 1.6 NNE 26 32 14 17 1024.9 1024.6 0.0
22/12:00am 19.7 17.1 16.9 84 1.7 NE 26 32 14 17 1024.9 1024.6 0.0
 
Date/Time
EST
Temp
°C
App
Temp
°C
Dew
Point
°C
Rel
Hum
%
Delta-T
°C
Wind Press
QNH
hPa
Press
MSL
hPa
Rain since
9am
mm
Dir  Spd
km/h
Gust
km/h
Spd
kts
Gust
kts
21/11:30pm 19.8 17.7 17.2 85 1.6 NNE 24 30 13 16 1024.9 1024.6 0.0
21/11:00pm 19.8 17.6 17.0 84 1.7 NNE 24 32 13 17 1025.0 1024.7 0.0
21/10:30pm 19.6 17.7 17.7 89 1.2 NE 24 32 13 17 1025.0 1024.7 0.0
21/10:00pm 19.5 17.2 17.6 89 1.2 ENE 26 32 14 17 1025.0 1024.7 0.0
21/09:30pm 19.8 17.9 17.6 87 1.4 NE 24 30 13 16 1025.0 1024.7 0.0
21/09:00pm 19.7 17.4 17.7 88 1.2 NE 26 33 14 18 1024.8 1024.5 0.0
21/08:30pm 19.6 16.8 17.4 87 1.3 NE 28 33 15 18 1024.8 1024.5 0.0
21/08:00pm 19.4 16.3 17.5 89 1.2 NE 30 41 16 22 1024.7 1024.4 0.0
21/07:30pm 19.6 16.4 17.2 86 1.5 ENE 30 35 16 19 1024.4 1024.1 0.0
21/07:00pm 19.7 17.0 17.5 87 1.3 ENE 28 35 15 19 1024.1 1023.8 0.0
21/06:30pm 19.8 16.9 17.0 84 1.7 NE 28 33 15 18 1023.7 1023.4 0.0
21/06:00pm 19.7 17.0 16.7 83 1.8 ENE 26 32 14 17 1023.6 1023.3 0.0
21/05:30pm 19.9 16.9 16.7 82 1.9 ENE 28 33 15 18 1023.5 1023.2 0.0
21/05:00pm 20.1 17.3 16.3 79 2.3 ENE 26 32 14 17 1023.4 1023.1 0.0
21/04:30pm 20.3 18.0 16.7 80 2.2 ENE 24 30 13 16 1023.3 1023.0 0.0
21/04:00pm 21.0 19.4 16.6 76 2.7 NE 20 26 11 14 1023.4 1023.1 0.0
21/03:30pm 21.5 19.6 15.8 70 3.4 NE 20 28 11 15 1023.5 1023.2 0.0
21/03:00pm 21.9 19.9 15.5 67 3.8 NE 20 28 11 15 1023.6 1023.3 0.0
21/02:30pm 22.1 19.6 15.2 65 4.1 NE 22 28 12 15 1023.8 1023.5 0.0
21/02:00pm 22.4 20.0 15.3 64 4.2 NE 22 30 12 16 1023.9 1023.6 0.0
21/01:30pm 22.8 20.8 15.4 63 4.4 NE 20 26 11 14 1024.2 1023.9 0.0
21/01:00pm 23.3 21.3 15.6 62 4.6 NE 20 28 11 15 1024.4 1024.1 0.0
21/12:30pm 23.4 22.1 16.7 66 4.1 NE 19 24 10 13 1024.7 1024.4 0.0
21/12:00pm 23.5 22.0 16.3 64 4.4 NE 19 24 10 13 1025.1 1024.8 0.0
21/11:30am 24.1 22.5 16.4 62 4.7 NE 20 26 11 14 1025.5 1025.2 0.0
21/11:00am 24.3 22.9 16.6 62 4.7 NE 19 24 10 13 1025.9 1025.6 0.0
21/10:30am 23.6 22.0 16.1 62 4.6 NE 19 22 10 12 1026.2 1025.9 0.0
21/10:00am 23.8 22.1 16.3 63 4.6 NE 20 24 11 13 1026.3 1026.0 0.0
21/09:30am 23.3 21.7 16.4 65 4.2 NE 20 26 11 14 1026.5 1026.2 0.0
21/09:00am 23.6 22.4 17.1 67 4.0 NE 19 24 10 13 1026.4 1026.1 0.2
21/08:30am 23.2 22.0 17.0 68 3.8 NE 19 24 10 13 1026.6 1026.3 0.2
21/08:00am 22.4 20.8 16.4 69 3.6 NE 20 28 11 15 1026.3 1026.0 0.2
21/07:30am 22.0 20.6 16.9 73 3.1 ENE 20 26 11 14 1026.0 1025.7 0.2
21/07:00am 20.5 18.9 16.5 78 2.4 ENE 20 26 11 14 1025.8 1025.5 0.2
21/06:30am 20.4 17.9 16.2 77 2.5 ENE 24 30 13 16 1025.5 1025.2 0.2
21/06:00am 19.5 17.4 16.3 82 1.9 ENE 22 28 12 15 1025.3 1025.0 0.2
21/05:30am 19.4 17.0 16.4 83 1.8 E 24 28 13 15 1025.2 1024.9 0.2
21/05:00am 19.4 16.9 16.2 82 1.9 ENE 24 26 13 14 1024.9 1024.6 0.2
21/04:30am 19.3 17.2 16.2 82 1.9 ENE 22 26 12 14 1024.6 1024.3 0.2
21/04:00am 19.2 16.7 16.2 83 1.8 E 24 26 13 14 1024.3 1024.0 0.2
21/03:30am 19.5 17.5 16.5 83 1.8 E 22 28 12 15 1024.2 1023.9 0.2
21/03:00am 19.3 17.3 16.5 84 1.7 E 22 26 12 14 1024.2 1023.9 0.2
21/02:30am 19.3 17.2 16.3 83 1.8 E 22 26 12 14 1024.2 1023.9 0.2
21/02:00am 19.4 17.1 16.6 84 1.7 E 24 28 13 15 1024.3 1024.0 0.2
21/01:30am 19.3 16.2 16.5 84 1.7 E 28 32 15 17 1024.5 1024.2 0.2
21/01:00am 19.2 15.2 16.2 83 1.8 E 32 35 17 19 1024.4 1024.1 0.2
21/12:30am 19.2 15.4 16.6 85 1.6 E 32 37 17 20 1024.5 1024.2 0.2
21/12:00am 19.3 15.7 17.1 87 1.3 E 32 37 17 20 1024.7 1024.4 0.2
 
Date/Time
EST
Temp
°C
App
Temp
°C
Dew
Point
°C
Rel
Hum
%
Delta-T
°C
Wind Press
QNH
hPa
Press
MSL
hPa
Rain since
9am
mm
Dir  Spd
km/h
Gust
km/h
Spd
kts
Gust
kts
20/11:30pm 19.4 15.9 16.4 83 1.8 E 30 35 16 19 1024.9 1024.6 0.2
20/11:00pm 19.2 16.7 16.2 83 1.8 E 24 30 13 16 1025.0 1024.7 0.2
20/10:30pm 19.5 16.8 16.7 84 1.7 E 26 32 14 17 1025.1 1024.8 0.2
20/10:00pm 19.3 17.5 16.9 86 1.5 E 22 26 12 14 1025.2 1024.9 0.2
20/09:30pm 19.3 17.2 16.3 83 1.8 ESE 22 26 12 14 1025.3 1025.0 0.2
20/09:00pm 19.3 17.2 16.2 82 1.9 ESE 22 26 12 14 1025.4 1025.1 0.2
20/08:30pm 19.4 17.4 16.4 83 1.8 E 22 28 12 15 1025.2 1024.9 0.2
20/08:00pm 19.5 17.1 16.3 82 1.9 E 24 30 13 16 1025.1 1024.8 0.2
20/07:30pm 19.5 16.8 16.5 83 1.8 ESE 26 30 14 16 1024.8 1024.5 0.2
20/07:00pm 19.4 16.9 16.1 81 2.0 ESE 24 30 13 16 1024.4 1024.1 0.2
20/06:30pm 19.4 16.2 16.2 82 1.9 ESE 28 32 15 17 1023.9 1023.6 0.2
20/06:00pm 19.5 16.3 16.2 81 2.0 ESE 28 32 15 17 1023.8 1023.5 0.2
20/05:30pm 19.7 17.2 16.2 80 2.1 ESE 24 30 13 16 1023.8 1023.5 0.2
20/05:00pm 20.0 17.4 15.8 77 2.5 ESE 24 28 13 15 1023.4 1023.1 0.2
20/04:30pm 20.1 17.7 16.3 79 2.3 ESE 24 30 13 16 1023.2 1022.9 0.2
20/04:00pm 20.5 17.5 16.7 79 2.3 ESE 28 32 15 17 1022.9 1022.7 0.2
20/03:30pm 20.7 17.6 16.5 77 2.5 ESE 28 32 15 17 1022.9 1022.7 0.2

Latest Capital City Observations: Canberra | Sydney | Melbourne | Brisbane | Adelaide | Perth | Hobart | Darwin

Other formats

Comma delimited format used in spreadsheet applications
http://www.bom.gov.au/fwo/IDQ60901/IDQ60901.94594.axf

JavaScript Object Notation format (JSON) in row-major order
http://www.bom.gov.au/fwo/IDQ60901/IDQ60901.94594.json

Data quality

Most of these data are generated automatically and are frequently updated. Quality checks on data are not normally performed. It is possible for incorrect values to appear. Refer to information at About Latest Weather Observations and please check the disclaimer before using these data.